Morton S Bouchard Jr — WSE9678 — position and weather

sailwx.info

Track history (hours):
 
Tides and Currents Weather Stations Pressure Air Temp Water Temp Dewpoint Dewpoint Depression Visibility Wind Speed Wind Dir Waves Ship Positions

Morton S Bouchard Jr

Owner: BOUCHARD TRANSPORTATION CO INC, MELVILLE, NY. More information available from US FCC via Universal Licensing System and Coast Guard Vessel Documentation Center.

Last reported at 2017-May-23 16:55 UTC. Time now 2017-May-23 17:06 UTC.
Position N 40°33' W 074°15'.

Length 33 m; draft 5.9 m.

Type: Tug. MMSI: 367006550.

Date/timePositionNaut miles runAvg speedWind from/ knotsBaromVisibWave heightAir tempDewpointWater temp
2017-May-23 16:55N 40°33' W 074°15'0 0.0
2017-May-23 16:25N 40°33' W 074°15'1 3.2
2017-May-23 16:00N 40°33' W 074°13'2 4.7
2017-May-23 15:29N 40°36' W 074°12'0 0.0
2017-May-23 14:59N 40°36' W 074°12'0 0.0
2017-May-23 14:29N 40°36' W 074°12'0 0.0
2017-May-23 13:29N 40°36' W 074°12'0 0.0
2017-May-23 12:59N 40°36' W 074°12'0 0.0
2017-May-23 12:29N 40°36' W 074°12'0 0.0
2017-May-23 11:59N 40°36' W 074°12'0 0.0
2017-May-23 11:29N 40°36' W 074°12'0 0.4
2017-May-23 10:35N 40°35' W 074°12'0 1.4
2017-May-23 10:30N 40°35' W 074°12'3 6.5
2017-May-23 10:00N 40°33' W 074°15'0 0.0
2017-May-23 02:06N 40°33' W 074°15'0 0.0
2017-May-23 01:45N 40°33' W 074°15'0 0.1
2017-May-23 01:23N 40°33' W 074°15'3 8.5
2017-May-23 00:59N 40°35' W 074°12'2 4.3
2017-May-23 00:30N 40°38' W 074°12'1 1.3
2017-May-23 00:00N 40°38' W 074°12'2 4.1
2017-May-22 23:25N 40°36' W 074°12'0 0.0
2017-May-22 22:58N 40°36' W 074°12'0 0.0
2017-May-22 22:28N 40°36' W 074°12'0 0.0
2017-May-22 21:58N 40°36' W 074°12'0 0.0
2017-May-22 21:30N 40°36' W 074°12'4 6.8
2017-May-22 20:58N 40°33' W 074°15'0 0.5
2017-May-22 20:27N 40°33' W 074°15'0 0.0
2017-May-22 19:51N 40°33' W 074°15'0 0.0
2017-May-22 19:30N 40°33' W 074°15'0 0.0
2017-May-22 18:57N 40°33' W 074°15'0 0.0
2017-May-22 18:27N 40°33' W 074°15'0 0.0
2017-May-22 17:57N 40°33' W 074°15'0 0.0
2017-May-22 17:30N 40°33' W 074°15'0 0.0
2017-May-22 16:57N 40°33' W 074°15'0 0.0
2017-May-22 16:30N 40°33' W 074°15'0 0.0
2017-May-22 16:00N 40°33' W 074°15'0 0.0
2017-May-22 15:30N 40°33' W 074°15'0 0.0
2017-May-22 15:00N 40°33' W 074°15'0 0.0
2017-May-22 13:57N 40°33' W 074°15'0 0.1
2017-May-22 13:27N 40°33' W 074°15'0 0.0
2017-May-22 13:00N 40°33' W 074°15'0 0.0
2017-May-22 06:57N 40°33' W 074°15'0 0.1
2017-May-22 05:53N 40°33' W 074°15'0 0.6
2017-May-22 05:30N 40°33' W 074°15'3 6.2
2017-May-22 05:00N 40°35' W 074°12'1 2.6
2017-May-22 04:30N 40°36' W 074°12'0 0.0
2017-May-22 04:00N 40°36' W 074°12'0 0.1
2017-May-22 03:30N 40°36' W 074°12'0 0.0
2017-May-22 02:57N 40°36' W 074°12'0 0.0
2017-May-22 02:30N 40°36' W 074°12'0 0.0
2017-May-22 02:00N 40°36' W 074°12'0 0.0
2017-May-22 01:27N 40°36' W 074°12'0 0.0
2017-May-22 01:00N 40°36' W 074°12'0 0.0
2017-May-22 00:30N 40°36' W 074°12'4 7.9
2017-May-22 00:00N 40°39' W 074°08'4 8.2
2017-May-21 23:28N 40°39' W 074°03'0 0.1
2017-May-21 22:58N 40°39' W 074°02'0 0.0
2017-May-21 22:28N 40°39' W 074°02'0 0.0
2017-May-21 21:58N 40°39' W 074°02'0 0.0
2017-May-21 21:28N 40°39' W 074°02'2 3.3
2017-May-21 21:00N 40°39' W 074°04'1 1.0
2017-May-21 20:28N 40°39' W 074°05'0 0.2
2017-May-21 20:00N 40°39' W 074°05'1 1.3
2017-May-21 19:28N 40°39' W 074°06'0 0.0
2017-May-21 18:58N 40°39' W 074°06'3 6.7
2017-May-21 18:30N 40°39' W 074°10'3 4.8
2017-May-21 17:53N 40°36' W 074°12'1 1.6
2017-May-21 17:30N 40°37' W 074°12'3 5.2
2017-May-21 17:00N 40°39' W 074°10'4 7.7
2017-May-21 16:30N 40°39' W 074°05'2 3.1
2017-May-21 15:58N 40°39' W 074°02'0 0.0
2017-May-21 15:28N 40°39' W 074°02'0 0.0
2017-May-21 14:58N 40°39' W 074°02'0 0.0
2017-May-21 13:58N 40°39' W 074°02'0 0.0
2017-May-21 13:28N 40°39' W 074°02'0 0.0
2017-May-21 12:58N 40°39' W 074°02'0 0.0
2017-May-21 12:28N 40°39' W 074°02'0 0.2
2017-May-21 11:58N 40°39' W 074°02'4 8.3
2017-May-21 11:30N 40°42' W 073°59'510.0
2017-May-21 11:00N 40°47' W 073°56'4 7.5
2017-May-21 10:30N 40°48' W 073°51'4 7.6
2017-May-21 10:00N 40°49' W 073°47'4 7.8
2017-May-21 09:30N 40°53' W 073°44'4 7.2
2017-May-21 08:57N 40°55' W 073°39'5 7.3
2017-May-21 08:15N 40°57' W 073°33'3 7.2
2017-May-21 07:50N 40°58' W 073°30'4 7.2
2017-May-21 07:15N 40°59' W 073°24'4 7.7
2017-May-21 06:41N 40°60' W 073°19'23 1.2
2017-May-20 10:57N 40°50' W 073°46'3 5.7
2017-May-20 10:30N 40°48' W 073°49'4 7.5
2017-May-20 10:00N 40°48' W 073°54'3 6.9
2017-May-20 09:30N 40°46' W 073°57'3 6.4
2017-May-20 09:00N 40°43' W 073°58'3 6.6
2017-May-20 08:30N 40°40' W 074°01'3 6.3
2017-May-20 08:00N 40°38' W 074°03'0 0.4
2017-May-20 07:28N 40°38' W 074°03'0 0.2
2017-May-20 06:58N 40°38' W 074°03'0 0.1
2017-May-20 06:28N 40°38' W 074°03'0 0.8
2017-May-20 06:00N 40°38' W 074°03'3 5.3
2017-May-20 05:30N 40°39' W 074°07'3 5.5
2017-May-20 05:01N 40°39' W 074°10'2 3.6
2017-May-20 04:28N 40°38' W 074°12'0 0.1
2017-May-20 03:58N 40°38' W 074°12'2 3.4
2017-May-20 03:26N 40°36' W 074°12'0 0.0
2017-May-20 02:53N 40°36' W 074°12'0 0.0
2017-May-20 02:29N 40°36' W 074°12'0 0.0
2017-May-20 01:53N 40°36' W 074°12'0 0.0
2017-May-20 01:29N 40°36' W 074°12'0 0.0
2017-May-20 00:59N 40°36' W 074°12'0 0.0
2017-May-20 00:26N 40°36' W 074°12'0 0.0
2017-May-19 23:56N 40°36' W 074°12'0 0.0
2017-May-19 23:29N 40°36' W 074°12'0 0.0
2017-May-19 22:59N 40°36' W 074°12'0 0.0
2017-May-19 22:26N 40°36' W 074°12'0 0.0
2017-May-19 21:59N 40°36' W 074°12'0 0.0
2017-May-19 21:29N 40°36' W 074°12'0 0.0
2017-May-19 20:56N 40°36' W 074°12'0 0.0
2017-May-19 20:29N 40°36' W 074°12'0 0.0
2017-May-19 19:59N 40°36' W 074°12'0 0.0
2017-May-19 19:29N 40°36' W 074°12'0 0.0
2017-May-19 18:56N 40°36' W 074°12'0 0.0
2017-May-19 18:26N 40°36' W 074°12'0 0.0
2017-May-19 17:59N 40°36' W 074°12'0 0.0
2017-May-19 17:29N 40°36' W 074°12'1 2.1
2017-May-19 17:00N 40°37' W 074°12'1 1.5
2017-May-19 16:28N 40°38' W 074°12'1 2.2
2017-May-19 15:56N 40°39' W 074°11'1 3.0
2017-May-19 15:30N 40°39' W 074°10'3 5.5
2017-May-19 15:01N 40°39' W 074°06'3 2.5
2017-May-19 13:58N 40°39' W 074°03'0 0.0
2017-May-19 13:28N 40°39' W 074°03'0 0.0
2017-May-19 12:58N 40°39' W 074°03'0 0.0
2017-May-19 12:28N 40°39' W 074°03'0 0.0
2017-May-19 11:58N 40°39' W 074°03'0 0.0
2017-May-19 11:28N 40°39' W 074°03'0 0.0
2017-May-19 10:58N 40°39' W 074°03'0 0.1
2017-May-19 10:28N 40°39' W 074°03'0 0.1
2017-May-19 09:58N 40°39' W 074°03'0 0.1
2017-May-19 09:28N 40°39' W 074°03'0 0.1
2017-May-19 08:58N 40°39' W 074°03'0 0.0
2017-May-19 08:28N 40°39' W 074°03'0 0.0
2017-May-19 07:55N 40°39' W 074°03'0 0.0
2017-May-19 07:28N 40°39' W 074°03'0 0.1
2017-May-19 06:58N 40°39' W 074°03'0 0.0
2017-May-19 06:28N 40°39' W 074°03'0 0.0
2017-May-19 05:58N 40°39' W 074°03'0 0.0
2017-May-19 05:28N 40°39' W 074°03'0 0.0
2017-May-19 04:58N 40°39' W 074°03'0 0.0
2017-May-19 04:28N 40°39' W 074°03'0 0.0
2017-May-19 03:58N 40°39' W 074°03'0 0.0
2017-May-19 03:28N 40°39' W 074°03'0 0.2
2017-May-19 03:00N 40°40' W 074°03'3 5.4
2017-May-19 02:30N 40°41' W 074°00'0 0.1
2017-May-19 01:58N 40°41' W 074°00'0 0.3
2017-May-19 01:29N 40°42' W 074°00'0 0.1
2017-May-19 00:59N 40°41' W 074°00'0 0.1
2017-May-19 00:30N 40°42' W 074°00'0 0.1
2017-May-18 23:58N 40°42' W 074°00'0 0.2
2017-May-18 23:28N 40°41' W 074°00'0 0.0
2017-May-18 22:59N 40°41' W 074°00'0 0.1
2017-May-18 22:30N 40°41' W 074°00'4 7.4
2017-May-18 22:00N 40°40' W 074°04'2 4.3
2017-May-18 21:30N 40°39' W 074°07'0 0.0
2017-May-18 21:00N 40°39' W 074°07'0 0.0
2017-May-18 20:27N 40°39' W 074°07'0 0.0
2017-May-18 20:00N 40°39' W 074°07'0 0.0
2017-May-18 19:30N 40°39' W 074°07'0 0.0
2017-May-18 19:00N 40°39' W 074°07'0 0.0
2017-May-18 18:30N 40°39' W 074°07'0 0.0
2017-May-18 17:54N 40°39' W 074°07'0 0.0
2017-May-18 17:30N 40°39' W 074°07'0 0.0
2017-May-18 17:00N 40°39' W 074°07'0 0.0
2017-May-18 16:30N 40°39' W 074°07'0 0.0
2017-May-18 16:00N 40°39' W 074°07'0 0.0
2017-May-18 15:27N 40°39' W 074°07'0 0.0
2017-May-18 15:00N 40°39' W 074°07'0 0.0
2017-May-18 14:00N 40°39' W 074°07'0 0.0
2017-May-18 13:30N 40°39' W 074°07'0 0.0
2017-May-18 12:57N 40°39' W 074°07'0 0.0
2017-May-18 12:30N 40°39' W 074°07'0 0.0
2017-May-18 12:00N 40°39' W 074°07'0 0.0
2017-May-18 11:30N 40°39' W 074°07'0 0.0
2017-May-18 11:00N 40°39' W 074°07'0 0.0
2017-May-18 10:27N 40°39' W 074°07'0 0.0
2017-May-18 10:00N 40°39' W 074°07'0 0.0
2017-May-18 09:30N 40°39' W 074°07'0 0.0
2017-May-18 08:57N 40°39' W 074°07'0 0.0
2017-May-18 08:30N 40°39' W 074°07'0 0.0
2017-May-18 08:00N 40°39' W 074°07'0 0.0
2017-May-18 07:27N 40°39' W 074°07'0 0.0
2017-May-18 06:57N 40°39' W 074°07'0 0.0
2017-May-18 06:27N 40°39' W 074°07'0 0.0
2017-May-18 06:00N 40°39' W 074°07'0 0.0
2017-May-18 05:30N 40°39' W 074°07'0 0.0
2017-May-18 05:00N 40°39' W 074°07'0 0.0
2017-May-18 04:24N 40°39' W 074°07'0 0.0
2017-May-18 04:00N 40°39' W 074°07'0 0.0
2017-May-18 03:30N 40°39' W 074°07'0 0.0
2017-May-18 03:00N 40°39' W 074°07'0 0.0
2017-May-18 02:30N 40°39' W 074°07'0 0.0
2017-May-18 02:00N 40°39' W 074°07'0 0.0
2017-May-18 01:30N 40°39' W 074°07'0 0.0
2017-May-18 01:00N 40°39' W 074°07'0 0.0
2017-May-18 00:30N 40°39' W 074°07'0 0.0
2017-May-18 00:00N 40°39' W 074°07'0 0.0
2017-May-17 23:30N 40°39' W 074°07'0 0.0
2017-May-17 23:00N 40°39' W 074°07'0 0.0
2017-May-17 22:24N 40°39' W 074°07'0 0.0
2017-May-17 22:00N 40°39' W 074°07'0 0.0
2017-May-17 21:30N 40°39' W 074°07'0 0.0
2017-May-17 21:00N 40°39' W 074°07'0 0.0
2017-May-17 20:29N 40°39' W 074°07'0 0.0
2017-May-17 19:59N 40°39' W 074°07'0 0.0
2017-May-17 19:29N 40°39' W 074°07'0 0.0
2017-May-17 18:59N 40°39' W 074°07'0 0.0
2017-May-17 18:23N 40°39' W 074°07'0 0.0
2017-May-17 17:59N 40°39' W 074°07'0 0.0
2017-May-17 17:29N 40°39' W 074°07'0 0.0
2017-May-17 16:59N 40°39' W 074°07'0 0.0
2017-May-17 16:26N 40°39' W 074°07'0 0.0
2017-May-17 15:59N 40°39' W 074°07'0 0.0
2017-May-17 15:29N 40°39' W 074°07'0 0.0
2017-May-17 14:59N 40°39' W 074°07'0 0.0
2017-May-17 14:29N 40°39' W 074°07'0 0.0
2017-May-17 13:29N 40°39' W 074°07'0 0.0
2017-May-17 12:59N 40°39' W 074°07'0 0.0
2017-May-17 12:29N 40°39' W 074°07'0 0.0
2017-May-17 11:59N 40°39' W 074°07'0 0.0
2017-May-17 11:29N 40°39' W 074°07'0 0.0
2017-May-17 10:53N 40°39' W 074°07'0 0.0
2017-May-17 10:29N 40°39' W 074°07'0 0.0
2017-May-17 09:59N 40°39' W 074°07'0 0.0
2017-May-17 09:29N 40°39' W 074°07'0 0.0
2017-May-17 08:59N 40°39' W 074°07'0 0.0
2017-May-17 08:29N 40°39' W 074°07'0 0.0
2017-May-17 07:59N 40°39' W 074°07'0 0.0
2017-May-17 07:29N 40°39' W 074°07'0 0.0
2017-May-17 06:59N 40°39' W 074°07'0 0.0
2017-May-17 06:29N 40°39' W 074°07'0 0.0
2017-May-17 05:53N 40°39' W 074°07'0 0.0
2017-May-17 05:26N 40°39' W 074°07'0 0.0
2017-May-17 04:58N 40°39' W 074°07'0 0.0
2017-May-17 04:28N 40°39' W 074°07'0 0.0
2017-May-17 03:58N 40°39' W 074°07'0 0.0
2017-May-17 03:28N 40°39' W 074°07'0 0.0
2017-May-17 02:58N 40°39' W 074°07'0 0.0
2017-May-17 02:28N 40°39' W 074°07'0 0.0
2017-May-17 01:58N 40°39' W 074°07'0 0.0
2017-May-17 01:28N 40°39' W 074°07'0 0.0
2017-May-17 00:52N 40°39' W 074°07'0 0.0
2017-May-17 00:25N 40°39' W 074°07'0 0.0
2017-May-16 23:55N 40°39' W 074°07'0 0.0
2017-May-16 23:22N 40°39' W 074°07'0 0.0
2017-May-16 22:58N 40°39' W 074°07'0 0.0
2017-May-16 22:28N 40°39' W 074°07'0 0.0
2017-May-16 21:58N 40°39' W 074°07'0 0.0
2017-May-16 21:25N 40°39' W 074°07'0 0.0
2017-May-16 20:58N 40°39' W 074°07'0 0.0
2017-May-16 20:25N 40°39' W 074°07'0 0.0
2017-May-16 19:58N 40°39' W 074°07'0 0.0
2017-May-16 19:28N 40°39' W 074°07'0 0.0
2017-May-16 18:58N 40°39' W 074°07'0 0.0
2017-May-16 18:28N 40°39' W 074°07'0 0.0
2017-May-16 17:58N 40°39' W 074°07'0 0.0
2017-May-16 17:28N 40°39' W 074°07'0 0.0
2017-May-16 16:58N 40°39' W 074°07'0 0.0
2017-May-16 16:25N 40°39' W 074°07'0 0.0
2017-May-16 15:58N 40°39' W 074°07'0 0.0
2017-May-16 15:28N 40°39' W 074°07'0 0.0
2017-May-16 14:58N 40°39' W 074°07'0 0.0
2017-May-16 14:28N 40°39' W 074°07'0 0.0
2017-May-16 13:30N 40°39' W 074°07'0 0.0
2017-May-16 13:00N 40°39' W 074°07'0 0.0
2017-May-16 12:30N 40°39' W 074°07'0 0.0
2017-May-16 11:57N 40°39' W 074°07'0 0.0
2017-May-16 11:30N 40°39' W 074°07'0 0.0
2017-May-16 10:57N 40°39' W 074°07'0 0.0
2017-May-16 10:30N 40°39' W 074°07'0 0.0
2017-May-16 10:00N 40°39' W 074°07'0 0.0
2017-May-16 09:30N 40°39' W 074°07'0 0.0
2017-May-16 09:00N 40°39' W 074°07'0 0.0
2017-May-16 08:27N 40°39' W 074°07'0 0.0
2017-May-16 08:00N 40°39' W 074°07'0 0.0
2017-May-16 07:30N 40°39' W 074°07'0 0.0
2017-May-16 07:00N 40°39' W 074°07'0 0.0
2017-May-16 06:30N 40°39' W 074°07'0 0.0
2017-May-16 06:00N 40°39' W 074°07'0 0.0
2017-May-16 05:30N 40°39' W 074°07'0 0.0
2017-May-16 05:00N 40°39' W 074°07'0 0.0
2017-May-16 04:30N 40°39' W 074°07'0 0.0
2017-May-16 04:00N 40°39' W 074°07'0 0.0
2017-May-16 03:30N 40°39' W 074°07'0 0.0
2017-May-16 03:00N 40°39' W 074°07'0 0.0
2017-May-16 02:30N 40°39' W 074°07'0 0.0
2017-May-16 01:57N 40°39' W 074°07'0 0.0
2017-May-16 01:27N 40°39' W 074°07'0 0.0
2017-May-16 01:00N 40°39' W 074°07'0 0.0
2017-May-16 00:30N 40°39' W 074°07'0 0.0
2017-May-16 00:00N 40°39' W 074°07'0 0.0
2017-May-15 23:30N 40°39' W 074°07'0 0.0
2017-May-15 22:27N 40°39' W 074°07'0 0.0
2017-May-15 22:00N 40°39' W 074°07'0 0.0
2017-May-15 21:30N 40°39' W 074°07'0 0.0
2017-May-15 21:00N 40°39' W 074°07'0 0.0
2017-May-15 20:30N 40°39' W 074°07'0 0.0
2017-May-15 20:00N 40°39' W 074°07'0 0.0
2017-May-15 19:30N 40°39' W 074°07'0 0.0
2017-May-15 19:00N 40°39' W 074°07'0 0.0
2017-May-15 18:30N 40°39' W 074°07'0 0.0
2017-May-15 18:00N 40°39' W 074°07'0 0.0
2017-May-15 17:27N 40°39' W 074°07'0 0.0
2017-May-15 17:00N 40°39' W 074°07'0 0.0
2017-May-15 16:30N 40°39' W 074°07'0 0.0
2017-May-15 16:00N 40°39' W 074°07'0 0.0
2017-May-15 15:30N 40°39' W 074°07'0 0.0
2017-May-15 15:00N 40°39' W 074°07'0 0.0
2017-May-15 14:27N 40°39' W 074°07'0 0.0
2017-May-15 13:24N 40°39' W 074°07'0 0.0
2017-May-15 12:57N 40°39' W 074°07'0 0.0
2017-May-15 12:30N 40°39' W 074°07'0 0.0
2017-May-15 12:00N 40°39' W 074°07'0 0.0
2017-May-15 11:30N 40°39' W 074°07'0 0.0
2017-May-15 11:00N 40°39' W 074°07'0 0.0
2017-May-15 10:27N 40°39' W 074°07'0 0.0
2017-May-15 10:00N 40°39' W 074°07'0 0.0
2017-May-15 09:30N 40°39' W 074°07'0 0.0
2017-May-15 09:00N 40°39' W 074°07'0 0.0
2017-May-15 08:30N 40°39' W 074°07'0 0.0
2017-May-15 08:00N 40°39' W 074°07'0 0.0
2017-May-15 07:30N 40°39' W 074°07'0 0.0
2017-May-15 07:00N 40°39' W 074°07'0 0.0
2017-May-15 06:30N 40°39' W 074°07'0 0.0
2017-May-15 05:59N 40°39' W 074°07'0 0.0
2017-May-15 05:29N 40°39' W 074°07'0 0.0
2017-May-15 04:59N 40°39' W 074°07'0 0.0
2017-May-15 04:29N 40°39' W 074°07'0 0.0
2017-May-15 03:59N 40°39' W 074°07'0 0.0
2017-May-15 03:29N 40°39' W 074°07'0 0.0
2017-May-15 02:59N 40°39' W 074°07'0 0.0
2017-May-15 02:29N 40°39' W 074°07'0 0.0
2017-May-15 01:59N 40°39' W 074°07'0 0.0
2017-May-15 01:29N 40°39' W 074°07'0 0.0
2017-May-15 00:59N 40°39' W 074°07'0 0.0
2017-May-15 00:29N 40°39' W 074°07'0 0.0
2017-May-14 23:59N 40°39' W 074°07'0 0.0
2017-May-14 23:26N 40°39' W 074°07'0 0.0
2017-May-14 22:59N 40°39' W 074°07'0 0.0
2017-May-14 22:29N 40°39' W 074°07'0 0.0
2017-May-14 21:59N 40°39' W 074°07'0 0.0
2017-May-14 21:29N 40°39' W 074°07'0 0.0
2017-May-14 20:53N 40°39' W 074°07'0 0.0
2017-May-14 20:26N 40°39' W 074°07'0 0.0
2017-May-14 19:53N 40°39' W 074°07'0 0.0
2017-May-14 19:29N 40°39' W 074°07'0 0.0
2017-May-14 18:59N 40°39' W 074°07'0 0.0
2017-May-14 18:26N 40°39' W 074°07'0 0.0
2017-May-14 17:56N 40°39' W 074°07'0 0.0
2017-May-14 17:26N 40°39' W 074°07'0 0.0
2017-May-14 16:56N 40°39' W 074°07'0 0.0
2017-May-14 16:29N 40°39' W 074°07'0 0.0
2017-May-14 15:59N 40°39' W 074°07'0 0.0
2017-May-14 15:29N 40°39' W 074°07'0 0.0
2017-May-14 14:59N 40°39' W 074°07'0 0.0
2017-May-14 14:29N 40°39' W 074°07'0 0.0
2017-May-14 13:29N 40°39' W 074°07'0 0.0
2017-May-14 12:59N 40°39' W 074°07'0 0.0
2017-May-14 12:29N 40°39' W 074°07'0 0.0
2017-May-14 11:59N 40°39' W 074°07'0 0.0
2017-May-14 11:29N 40°39' W 074°07'0 0.0
2017-May-14 10:59N 40°39' W 074°07'0 0.0
2017-May-14 10:29N 40°39' W 074°07'0 0.0
2017-May-14 09:59N 40°39' W 074°07'0 0.0
2017-May-14 09:29N 40°39' W 074°07'0 0.0
2017-May-14 08:58N 40°39' W 074°07'0 0.0
2017-May-14 08:28N 40°39' W 074°07'0 0.0
2017-May-14 07:58N 40°39' W 074°07'0 0.0
2017-May-14 07:28N 40°39' W 074°07'0 0.0
2017-May-14 06:58N 40°39' W 074°07'0 0.0
2017-May-14 06:28N 40°39' W 074°07'0 0.0
2017-May-14 05:58N 40°39' W 074°07'0 0.0
2017-May-14 05:28N 40°39' W 074°07'0 0.0
2017-May-14 04:58N 40°39' W 074°07'0 0.0
2017-May-14 04:28N 40°39' W 074°07'0 0.0
2017-May-14 03:55N 40°39' W 074°07'0 0.0
2017-May-14 03:28N 40°39' W 074°07'0 0.0
2017-May-14 02:58N 40°39' W 074°07'0 0.0
2017-May-14 02:28N 40°39' W 074°07'0 0.0
2017-May-14 01:58N 40°39' W 074°07'0 0.0
2017-May-14 01:28N 40°39' W 074°07'0 0.0
2017-May-14 00:58N 40°39' W 074°07'0 0.0
2017-May-14 00:28N 40°39' W 074°07'0 0.0
2017-May-13 23:58N 40°39' W 074°07'0 0.0
2017-May-13 23:28N 40°39' W 074°07'0 0.0
2017-May-13 22:58N 40°39' W 074°07'0 0.0
2017-May-13 22:28N 40°39' W 074°07'0 0.0
2017-May-13 21:58N 40°39' W 074°07'0 0.0
2017-May-13 21:28N 40°39' W 074°07'0 0.0
2017-May-13 20:58N 40°39' W 074°07'0 0.0
2017-May-13 20:28N 40°39' W 074°07'0 0.0
2017-May-13 19:58N 40°39' W 074°07'0 0.0
2017-May-13 19:25N 40°39' W 074°07'0 0.0
2017-May-13 18:58N 40°39' W 074°07'0 0.0
2017-May-13 18:28N 40°39' W 074°07'0 0.0
2017-May-13 17:58N 40°39' W 074°07'0 0.0
2017-May-13 17:28N 40°39' W 074°07'0 0.0
2017-May-13 16:58N 40°39' W 074°07'  
Track history (hours):
 
Tides and Currents Weather Stations Pressure Air Temp Water Temp Dewpoint Dewpoint Depression Visibility Wind Speed Wind Dir Waves Ship Positions

Morton S Bouchard Jr

Owner: BOUCHARD TRANSPORTATION CO INC, MELVILLE, NY. More information available from US FCC via Universal Licensing System and Coast Guard Vessel Documentation Center.

Last reported at 2017-May-23 16:55 UTC. Time now 2017-May-23 17:06 UTC.
Position N 40°33' W 074°15'.

Length 33 m; draft 5.9 m.

Type: Tug. MMSI: 367006550.

Date/timePositionNaut miles runAvg speedWind from/ knotsBaromVisibWave heightAir tempDewpointWater temp
2017-May-23 16:55N 40°33' W 074°15'0 0.0
2017-May-23 16:25N 40°33' W 074°15'1 3.2
2017-May-23 16:00N 40°33' W 074°13'2 4.7
2017-May-23 15:29N 40°36' W 074°12'0 0.0
2017-May-23 14:59N 40°36' W 074°12'0 0.0
2017-May-23 14:29N 40°36' W 074°12'0 0.0
2017-May-23 13:29N 40°36' W 074°12'0 0.0
2017-May-23 12:59N 40°36' W 074°12'0 0.0
2017-May-23 12:29N 40°36' W 074°12'0 0.0
2017-May-23 11:59N 40°36' W 074°12'0 0.0
2017-May-23 11:29N 40°36' W 074°12'0 0.4
2017-May-23 10:35N 40°35' W 074°12'0 1.4
2017-May-23 10:30N 40°35' W 074°12'3 6.5
2017-May-23 10:00N 40°33' W 074°15'0 0.0
2017-May-23 02:06N 40°33' W 074°15'0 0.0
2017-May-23 01:45N 40°33' W 074°15'0 0.1
2017-May-23 01:23N 40°33' W 074°15'3 8.5
2017-May-23 00:59N 40°35' W 074°12'2 4.3
2017-May-23 00:30N 40°38' W 074°12'1 1.3
2017-May-23 00:00N 40°38' W 074°12'2 4.1
2017-May-22 23:25N 40°36' W 074°12'0 0.0
2017-May-22 22:58N 40°36' W 074°12'0 0.0
2017-May-22 22:28N 40°36' W 074°12'0 0.0
2017-May-22 21:58N 40°36' W 074°12'0 0.0
2017-May-22 21:30N 40°36' W 074°12'4 6.8
2017-May-22 20:58N 40°33' W 074°15'0 0.5
2017-May-22 20:27N 40°33' W 074°15'0 0.0
2017-May-22 19:51N 40°33' W 074°15'0 0.0
2017-May-22 19:30N 40°33' W 074°15'0 0.0
2017-May-22 18:57N 40°33' W 074°15'0 0.0
2017-May-22 18:27N 40°33' W 074°15'0 0.0
2017-May-22 17:57N 40°33' W 074°15'0 0.0
2017-May-22 17:30N 40°33' W 074°15'0 0.0
2017-May-22 16:57N 40°33' W 074°15'0 0.0
2017-May-22 16:30N 40°33' W 074°15'0 0.0
2017-May-22 16:00N 40°33' W 074°15'0 0.0
2017-May-22 15:30N 40°33' W 074°15'0 0.0
2017-May-22 15:00N 40°33' W 074°15'0 0.0
2017-May-22 13:57N 40°33' W 074°15'0 0.1
2017-May-22 13:27N 40°33' W 074°15'0 0.0
2017-May-22 13:00N 40°33' W 074°15'0 0.0
2017-May-22 06:57N 40°33' W 074°15'0 0.1
2017-May-22 05:53N 40°33' W 074°15'0 0.6
2017-May-22 05:30N 40°33' W 074°15'3 6.2
2017-May-22 05:00N 40°35' W 074°12'1 2.6
2017-May-22 04:30N 40°36' W 074°12'0 0.0
2017-May-22 04:00N 40°36' W 074°12'0 0.1
2017-May-22 03:30N 40°36' W 074°12'0 0.0
2017-May-22 02:57N 40°36' W 074°12'0 0.0
2017-May-22 02:30N 40°36' W 074°12'0 0.0
2017-May-22 02:00N 40°36' W 074°12'0 0.0
2017-May-22 01:27N 40°36' W 074°12'0 0.0
2017-May-22 01:00N 40°36' W 074°12'0 0.0
2017-May-22 00:30N 40°36' W 074°12'4 7.9
2017-May-22 00:00N 40°39' W 074°08'4 8.2
2017-May-21 23:28N 40°39' W 074°03'0 0.1
2017-May-21 22:58N 40°39' W 074°02'0 0.0
2017-May-21 22:28N 40°39' W 074°02'0 0.0
2017-May-21 21:58N 40°39' W 074°02'0 0.0
2017-May-21 21:28N 40°39' W 074°02'2 3.3
2017-May-21 21:00N 40°39' W 074°04'1 1.0
2017-May-21 20:28N 40°39' W 074°05'0 0.2
2017-May-21 20:00N 40°39' W 074°05'1 1.3
2017-May-21 19:28N 40°39' W 074°06'0 0.0
2017-May-21 18:58N 40°39' W 074°06'3 6.7
2017-May-21 18:30N 40°39' W 074°10'3 4.8
2017-May-21 17:53N 40°36' W 074°12'1 1.6
2017-May-21 17:30N 40°37' W 074°12'3 5.2
2017-May-21 17:00N 40°39' W 074°10'4 7.7
2017-May-21 16:30N 40°39' W 074°05'2 3.1
2017-May-21 15:58N 40°39' W 074°02'0 0.0
2017-May-21 15:28N 40°39' W 074°02'0 0.0
2017-May-21 14:58N 40°39' W 074°02'0 0.0
2017-May-21 13:58N 40°39' W 074°02'0 0.0
2017-May-21 13:28N 40°39' W 074°02'0 0.0
2017-May-21 12:58N 40°39' W 074°02'0 0.0
2017-May-21 12:28N 40°39' W 074°02'0 0.2
2017-May-21 11:58N 40°39' W 074°02'4 8.3
2017-May-21 11:30N 40°42' W 073°59'510.0
2017-May-21 11:00N 40°47' W 073°56'4 7.5
2017-May-21 10:30N 40°48' W 073°51'4 7.6
2017-May-21 10:00N 40°49' W 073°47'4 7.8
2017-May-21 09:30N 40°53' W 073°44'4 7.2
2017-May-21 08:57N 40°55' W 073°39'5 7.3
2017-May-21 08:15N 40°57' W 073°33'3 7.2
2017-May-21 07:50N 40°58' W 073°30'4 7.2
2017-May-21 07:15N 40°59' W 073°24'4 7.7
2017-May-21 06:41N 40°60' W 073°19'23 1.2
2017-May-20 10:57N 40°50' W 073°46'3 5.7
2017-May-20 10:30N 40°48' W 073°49'4 7.5
2017-May-20 10:00N 40°48' W 073°54'3 6.9
2017-May-20 09:30N 40°46' W 073°57'3 6.4
2017-May-20 09:00N 40°43' W 073°58'3 6.6
2017-May-20 08:30N 40°40' W 074°01'3 6.3
2017-May-20 08:00N 40°38' W 074°03'0 0.4
2017-May-20 07:28N 40°38' W 074°03'0 0.2
2017-May-20 06:58N 40°38' W 074°03'0 0.1
2017-May-20 06:28N 40°38' W 074°03'0 0.8
2017-May-20 06:00N 40°38' W 074°03'3 5.3
2017-May-20 05:30N 40°39' W 074°07'3 5.5
2017-May-20 05:01N 40°39' W 074°10'2 3.6
2017-May-20 04:28N 40°38' W 074°12'0 0.1
2017-May-20 03:58N 40°38' W 074°12'2 3.4
2017-May-20 03:26N 40°36' W 074°12'0 0.0
2017-May-20 02:53N 40°36' W 074°12'0 0.0
2017-May-20 02:29N 40°36' W 074°12'0 0.0
2017-May-20 01:53N 40°36' W 074°12'0 0.0
2017-May-20 01:29N 40°36' W 074°12'0 0.0
2017-May-20 00:59N 40°36' W 074°12'0 0.0
2017-May-20 00:26N 40°36' W 074°12'0 0.0
2017-May-19 23:56N 40°36' W 074°12'0 0.0
2017-May-19 23:29N 40°36' W 074°12'0 0.0
2017-May-19 22:59N 40°36' W 074°12'0 0.0
2017-May-19 22:26N 40°36' W 074°12'0 0.0
2017-May-19 21:59N 40°36' W 074°12'0 0.0
2017-May-19 21:29N 40°36' W 074°12'0 0.0
2017-May-19 20:56N 40°36' W 074°12'0 0.0
2017-May-19 20:29N 40°36' W 074°12'0 0.0
2017-May-19 19:59N 40°36' W 074°12'0 0.0
2017-May-19 19:29N 40°36' W 074°12'0 0.0
2017-May-19 18:56N 40°36' W 074°12'0 0.0
2017-May-19 18:26N 40°36' W 074°12'0 0.0
2017-May-19 17:59N 40°36' W 074°12'0 0.0
2017-May-19 17:29N 40°36' W 074°12'1 2.1
2017-May-19 17:00N 40°37' W 074°12'1 1.5
2017-May-19 16:28N 40°38' W 074°12'1 2.2
2017-May-19 15:56N 40°39' W 074°11'1 3.0
2017-May-19 15:30N 40°39' W 074°10'3 5.5
2017-May-19 15:01N 40°39' W 074°06'3 2.5
2017-May-19 13:58N 40°39' W 074°03'0 0.0
2017-May-19 13:28N 40°39' W 074°03'0 0.0
2017-May-19 12:58N 40°39' W 074°03'0 0.0
2017-May-19 12:28N 40°39' W 074°03'0 0.0
2017-May-19 11:58N 40°39' W 074°03'0 0.0
2017-May-19 11:28N 40°39' W 074°03'0 0.0
2017-May-19 10:58N 40°39' W 074°03'0 0.1
2017-May-19 10:28N 40°39' W 074°03'0 0.1
2017-May-19 09:58N 40°39' W 074°03'0 0.1
2017-May-19 09:28N 40°39' W 074°03'0 0.1
2017-May-19 08:58N 40°39' W 074°03'0 0.0
2017-May-19 08:28N 40°39' W 074°03'0 0.0
2017-May-19 07:55N 40°39' W 074°03'0 0.0
2017-May-19 07:28N 40°39' W 074°03'0 0.1
2017-May-19 06:58N 40°39' W 074°03'0 0.0
2017-May-19 06:28N 40°39' W 074°03'0 0.0
2017-May-19 05:58N 40°39' W 074°03'0 0.0
2017-May-19 05:28N 40°39' W 074°03'0 0.0
2017-May-19 04:58N 40°39' W 074°03'0 0.0
2017-May-19 04:28N 40°39' W 074°03'0 0.0
2017-May-19 03:58N 40°39' W 074°03'0 0.0
2017-May-19 03:28N 40°39' W 074°03'0 0.2
2017-May-19 03:00N 40°40' W 074°03'3 5.4
2017-May-19 02:30N 40°41' W 074°00'0 0.1
2017-May-19 01:58N 40°41' W 074°00'0 0.3
2017-May-19 01:29N 40°42' W 074°00'0 0.1
2017-May-19 00:59N 40°41' W 074°00'0 0.1
2017-May-19 00:30N 40°42' W 074°00'0 0.1
2017-May-18 23:58N 40°42' W 074°00'0 0.2
2017-May-18 23:28N 40°41' W 074°00'0 0.0
2017-May-18 22:59N 40°41' W 074°00'0 0.1
2017-May-18 22:30N 40°41' W 074°00'4 7.4
2017-May-18 22:00N 40°40' W 074°04'2 4.3
2017-May-18 21:30N 40°39' W 074°07'0 0.0
2017-May-18 21:00N 40°39' W 074°07'0 0.0
2017-May-18 20:27N 40°39' W 074°07'0 0.0
2017-May-18 20:00N 40°39' W 074°07'0 0.0
2017-May-18 19:30N 40°39' W 074°07'0 0.0
2017-May-18 19:00N 40°39' W 074°07'0 0.0
2017-May-18 18:30N 40°39' W 074°07'0 0.0
2017-May-18 17:54N 40°39' W 074°07'0 0.0
2017-May-18 17:30N 40°39' W 074°07'0 0.0
2017-May-18 17:00N 40°39' W 074°07'0 0.0
2017-May-18 16:30N 40°39' W 074°07'0 0.0
2017-May-18 16:00N 40°39' W 074°07'0 0.0
2017-May-18 15:27N 40°39' W 074°07'0 0.0
2017-May-18 15:00N 40°39' W 074°07'0 0.0
2017-May-18 14:00N 40°39' W 074°07'0 0.0
2017-May-18 13:30N 40°39' W 074°07'0 0.0
2017-May-18 12:57N 40°39' W 074°07'0 0.0
2017-May-18 12:30N 40°39' W 074°07'0 0.0
2017-May-18 12:00N 40°39' W 074°07'0 0.0
2017-May-18 11:30N 40°39' W 074°07'0 0.0
2017-May-18 11:00N 40°39' W 074°07'0 0.0
2017-May-18 10:27N 40°39' W 074°07'0 0.0
2017-May-18 10:00N 40°39' W 074°07'0 0.0
2017-May-18 09:30N 40°39' W 074°07'0 0.0
2017-May-18 08:57N 40°39' W 074°07'0 0.0
2017-May-18 08:30N 40°39' W 074°07'0 0.0
2017-May-18 08:00N 40°39' W 074°07'0 0.0
2017-May-18 07:27N 40°39' W 074°07'0 0.0
2017-May-18 06:57N 40°39' W 074°07'0 0.0
2017-May-18 06:27N 40°39' W 074°07'0 0.0
2017-May-18 06:00N 40°39' W 074°07'0 0.0
2017-May-18 05:30N 40°39' W 074°07'0 0.0
2017-May-18 05:00N 40°39' W 074°07'0 0.0
2017-May-18 04:24N 40°39' W 074°07'0 0.0
2017-May-18 04:00N 40°39' W 074°07'0 0.0
2017-May-18 03:30N 40°39' W 074°07'0 0.0
2017-May-18 03:00N 40°39' W 074°07'0 0.0
2017-May-18 02:30N 40°39' W 074°07'0 0.0
2017-May-18 02:00N 40°39' W 074°07'0 0.0
2017-May-18 01:30N 40°39' W 074°07'0 0.0
2017-May-18 01:00N 40°39' W 074°07'0 0.0
2017-May-18 00:30N 40°39' W 074°07'0 0.0
2017-May-18 00:00N 40°39' W 074°07'0 0.0
2017-May-17 23:30N 40°39' W 074°07'0 0.0
2017-May-17 23:00N 40°39' W 074°07'0 0.0
2017-May-17 22:24N 40°39' W 074°07'0 0.0
2017-May-17 22:00N 40°39' W 074°07'0 0.0
2017-May-17 21:30N 40°39' W 074°07'0 0.0
2017-May-17 21:00N 40°39' W 074°07'0 0.0
2017-May-17 20:29N 40°39' W 074°07'0 0.0
2017-May-17 19:59N 40°39' W 074°07'0 0.0
2017-May-17 19:29N 40°39' W 074°07'0 0.0
2017-May-17 18:59N 40°39' W 074°07'0 0.0
2017-May-17 18:23N 40°39' W 074°07'0 0.0
2017-May-17 17:59N 40°39' W 074°07'0 0.0
2017-May-17 17:29N 40°39' W 074°07'0 0.0
2017-May-17 16:59N 40°39' W 074°07'0 0.0
2017-May-17 16:26N 40°39' W 074°07'0 0.0
2017-May-17 15:59N 40°39' W 074°07'0 0.0
2017-May-17 15:29N 40°39' W 074°07'0 0.0
2017-May-17 14:59N 40°39' W 074°07'0 0.0
2017-May-17 14:29N 40°39' W 074°07'0 0.0
2017-May-17 13:29N 40°39' W 074°07'0 0.0
2017-May-17 12:59N 40°39' W 074°07'0 0.0
2017-May-17 12:29N 40°39' W 074°07'0 0.0
2017-May-17 11:59N 40°39' W 074°07'0 0.0
2017-May-17 11:29N 40°39' W 074°07'0 0.0
2017-May-17 10:53N 40°39' W 074°07'0 0.0
2017-May-17 10:29N 40°39' W 074°07'0 0.0
2017-May-17 09:59N 40°39' W 074°07'0 0.0
2017-May-17 09:29N 40°39' W 074°07'0 0.0
2017-May-17 08:59N 40°39' W 074°07'0 0.0
2017-May-17 08:29N 40°39' W 074°07'0 0.0
2017-May-17 07:59N 40°39' W 074°07'0 0.0
2017-May-17 07:29N 40°39' W 074°07'0 0.0
2017-May-17 06:59N 40°39' W 074°07'0 0.0
2017-May-17 06:29N 40°39' W 074°07'0 0.0
2017-May-17 05:53N 40°39' W 074°07'0 0.0
2017-May-17 05:26N 40°39' W 074°07'0 0.0
2017-May-17 04:58N 40°39' W 074°07'0 0.0
2017-May-17 04:28N 40°39' W 074°07'0 0.0
2017-May-17 03:58N 40°39' W 074°07'0 0.0
2017-May-17 03:28N 40°39' W 074°07'0 0.0
2017-May-17 02:58N 40°39' W 074°07'0 0.0
2017-May-17 02:28N 40°39' W 074°07'0 0.0
2017-May-17 01:58N 40°39' W 074°07'0 0.0
2017-May-17 01:28N 40°39' W 074°07'0 0.0
2017-May-17 00:52N 40°39' W 074°07'0 0.0
2017-May-17 00:25N 40°39' W 074°07'0 0.0
2017-May-16 23:55N 40°39' W 074°07'0 0.0
2017-May-16 23:22N 40°39' W 074°07'0 0.0
2017-May-16 22:58N 40°39' W 074°07'0 0.0
2017-May-16 22:28N 40°39' W 074°07'0 0.0
2017-May-16 21:58N 40°39' W 074°07'0 0.0
2017-May-16 21:25N 40°39' W 074°07'0 0.0
2017-May-16 20:58N 40°39' W 074°07'0 0.0
2017-May-16 20:25N 40°39' W 074°07'0 0.0
2017-May-16 19:58N 40°39' W 074°07'0 0.0
2017-May-16 19:28N 40°39' W 074°07'0 0.0
2017-May-16 18:58N 40°39' W 074°07'0 0.0
2017-May-16 18:28N 40°39' W 074°07'0 0.0
2017-May-16 17:58N 40°39' W 074°07'0 0.0
2017-May-16 17:28N 40°39' W 074°07'0 0.0
2017-May-16 16:58N 40°39' W 074°07'0 0.0
2017-May-16 16:25N 40°39' W 074°07'0 0.0
2017-May-16 15:58N 40°39' W 074°07'0 0.0
2017-May-16 15:28N 40°39' W 074°07'0 0.0
2017-May-16 14:58N 40°39' W 074°07'0 0.0
2017-May-16 14:28N 40°39' W 074°07'0 0.0
2017-May-16 13:30N 40°39' W 074°07'0 0.0
2017-May-16 13:00N 40°39' W 074°07'0 0.0
2017-May-16 12:30N 40°39' W 074°07'0 0.0
2017-May-16 11:57N 40°39' W 074°07'0 0.0
2017-May-16 11:30N 40°39' W 074°07'0 0.0
2017-May-16 10:57N 40°39' W 074°07'0 0.0
2017-May-16 10:30N 40°39' W 074°07'0 0.0
2017-May-16 10:00N 40°39' W 074°07'0 0.0
2017-May-16 09:30N 40°39' W 074°07'0 0.0
2017-May-16 09:00N 40°39' W 074°07'0 0.0
2017-May-16 08:27N 40°39' W 074°07'0 0.0
2017-May-16 08:00N 40°39' W 074°07'0 0.0
2017-May-16 07:30N 40°39' W 074°07'0 0.0
2017-May-16 07:00N 40°39' W 074°07'0 0.0
2017-May-16 06:30N 40°39' W 074°07'0 0.0
2017-May-16 06:00N 40°39' W 074°07'0 0.0
2017-May-16 05:30N 40°39' W 074°07'0 0.0
2017-May-16 05:00N 40°39' W 074°07'0 0.0
2017-May-16 04:30N 40°39' W 074°07'0 0.0
2017-May-16 04:00N 40°39' W 074°07'0 0.0
2017-May-16 03:30N 40°39' W 074°07'0 0.0
2017-May-16 03:00N 40°39' W 074°07'0 0.0
2017-May-16 02:30N 40°39' W 074°07'0 0.0
2017-May-16 01:57N 40°39' W 074°07'0 0.0
2017-May-16 01:27N 40°39' W 074°07'0 0.0
2017-May-16 01:00N 40°39' W 074°07'0 0.0
2017-May-16 00:30N 40°39' W 074°07'0 0.0
2017-May-16 00:00N 40°39' W 074°07'0 0.0
2017-May-15 23:30N 40°39' W 074°07'0 0.0
2017-May-15 22:27N 40°39' W 074°07'0 0.0
2017-May-15 22:00N 40°39' W 074°07'0 0.0
2017-May-15 21:30N 40°39' W 074°07'0 0.0
2017-May-15 21:00N 40°39' W 074°07'0 0.0
2017-May-15 20:30N 40°39' W 074°07'0 0.0
2017-May-15 20:00N 40°39' W 074°07'0 0.0
2017-May-15 19:30N 40°39' W 074°07'0 0.0
2017-May-15 19:00N 40°39' W 074°07'0 0.0
2017-May-15 18:30N 40°39' W 074°07'0 0.0
2017-May-15 18:00N 40°39' W 074°07'0 0.0
2017-May-15 17:27N 40°39' W 074°07'0 0.0
2017-May-15 17:00N 40°39' W 074°07'0 0.0
2017-May-15 16:30N 40°39' W 074°07'0 0.0
2017-May-15 16:00N 40°39' W 074°07'0 0.0
2017-May-15 15:30N 40°39' W 074°07'0 0.0
2017-May-15 15:00N 40°39' W 074°07'0 0.0
2017-May-15 14:27N 40°39' W 074°07'0 0.0
2017-May-15 13:24N 40°39' W 074°07'0 0.0
2017-May-15 12:57N 40°39' W 074°07'0 0.0
2017-May-15 12:30N 40°39' W 074°07'0 0.0
2017-May-15 12:00N 40°39' W 074°07'0 0.0
2017-May-15 11:30N 40°39' W 074°07'0 0.0
2017-May-15 11:00N 40°39' W 074°07'0 0.0
2017-May-15 10:27N 40°39' W 074°07'0 0.0
2017-May-15 10:00N 40°39' W 074°07'0 0.0
2017-May-15 09:30N 40°39' W 074°07'0 0.0
2017-May-15 09:00N 40°39' W 074°07'0 0.0
2017-May-15 08:30N 40°39' W 074°07'0 0.0
2017-May-15 08:00N 40°39' W 074°07'0 0.0
2017-May-15 07:30N 40°39' W 074°07'0 0.0
2017-May-15 07:00N 40°39' W 074°07'0 0.0
2017-May-15 06:30N 40°39' W 074°07'0 0.0
2017-May-15 05:59N 40°39' W 074°07'0 0.0
2017-May-15 05:29N 40°39' W 074°07'0 0.0
2017-May-15 04:59N 40°39' W 074°07'0 0.0
2017-May-15 04:29N 40°39' W 074°07'0 0.0
2017-May-15 03:59N 40°39' W 074°07'0 0.0
2017-May-15 03:29N 40°39' W 074°07'0 0.0
2017-May-15 02:59N 40°39' W 074°07'0 0.0
2017-May-15 02:29N 40°39' W 074°07'0 0.0
2017-May-15 01:59N 40°39' W 074°07'0 0.0
2017-May-15 01:29N 40°39' W 074°07'0 0.0
2017-May-15 00:59N 40°39' W 074°07'0 0.0
2017-May-15 00:29N 40°39' W 074°07'0 0.0
2017-May-14 23:59N 40°39' W 074°07'0 0.0
2017-May-14 23:26N 40°39' W 074°07'0 0.0
2017-May-14 22:59N 40°39' W 074°07'0 0.0
2017-May-14 22:29N 40°39' W 074°07'0 0.0
2017-May-14 21:59N 40°39' W 074°07'0 0.0
2017-May-14 21:29N 40°39' W 074°07'0 0.0
2017-May-14 20:53N 40°39' W 074°07'0 0.0
2017-May-14 20:26N 40°39' W 074°07'0 0.0
2017-May-14 19:53N 40°39' W 074°07'0 0.0
2017-May-14 19:29N 40°39' W 074°07'0 0.0
2017-May-14 18:59N 40°39' W 074°07'0 0.0
2017-May-14 18:26N 40°39' W 074°07'0 0.0
2017-May-14 17:56N 40°39' W 074°07'0 0.0
2017-May-14 17:26N 40°39' W 074°07'0 0.0
2017-May-14 16:56N 40°39' W 074°07'0 0.0
2017-May-14 16:29N 40°39' W 074°07'0 0.0
2017-May-14 15:59N 40°39' W 074°07'0 0.0
2017-May-14 15:29N 40°39' W 074°07'0 0.0
2017-May-14 14:59N 40°39' W 074°07'0 0.0
2017-May-14 14:29N 40°39' W 074°07'0 0.0
2017-May-14 13:29N 40°39' W 074°07'0 0.0
2017-May-14 12:59N 40°39' W 074°07'0 0.0
2017-May-14 12:29N 40°39' W 074°07'0 0.0
2017-May-14 11:59N 40°39' W 074°07'0 0.0
2017-May-14 11:29N 40°39' W 074°07'0 0.0
2017-May-14 10:59N 40°39' W 074°07'0 0.0
2017-May-14 10:29N 40°39' W 074°07'0 0.0
2017-May-14 09:59N 40°39' W 074°07'0 0.0
2017-May-14 09:29N 40°39' W 074°07'0 0.0
2017-May-14 08:58N 40°39' W 074°07'0 0.0
2017-May-14 08:28N 40°39' W 074°07'0 0.0
2017-May-14 07:58N 40°39' W 074°07'0 0.0
2017-May-14 07:28N 40°39' W 074°07'0 0.0
2017-May-14 06:58N 40°39' W 074°07'0 0.0
2017-May-14 06:28N 40°39' W 074°07'0 0.0
2017-May-14 05:58N 40°39' W 074°07'0 0.0
2017-May-14 05:28N 40°39' W 074°07'0 0.0
2017-May-14 04:58N 40°39' W 074°07'0 0.0
2017-May-14 04:28N 40°39' W 074°07'0 0.0
2017-May-14 03:55N 40°39' W 074°07'0 0.0
2017-May-14 03:28N 40°39' W 074°07'0 0.0
2017-May-14 02:58N 40°39' W 074°07'0 0.0
2017-May-14 02:28N 40°39' W 074°07'0 0.0
2017-May-14 01:58N 40°39' W 074°07'0 0.0
2017-May-14 01:28N 40°39' W 074°07'0 0.0
2017-May-14 00:58N 40°39' W 074°07'0 0.0
2017-May-14 00:28N 40°39' W 074°07'0 0.0
2017-May-13 23:58N 40°39' W 074°07'0 0.0
2017-May-13 23:28N 40°39' W 074°07'0 0.0
2017-May-13 22:58N 40°39' W 074°07'0 0.0
2017-May-13 22:28N 40°39' W 074°07'0 0.0
2017-May-13 21:58N 40°39' W 074°07'0 0.0
2017-May-13 21:28N 40°39' W 074°07'0 0.0
2017-May-13 20:58N 40°39' W 074°07'0 0.0
2017-May-13 20:28N 40°39' W 074°07'0 0.0
2017-May-13 19:58N 40°39' W 074°07'0 0.0
2017-May-13 19:25N 40°39' W 074°07'0 0.0
2017-May-13 18:58N 40°39' W 074°07'0 0.0
2017-May-13 18:28N 40°39' W 074°07'0 0.0
2017-May-13 17:58N 40°39' W 074°07'0 0.0
2017-May-13 17:28N 40°39' W 074°07'0 0.0
2017-May-13 16:58N 40°39' W 074°07'  

Dump ship's entire track history